Weather observations for the past three days for
Manhattan, Manhattan Municipal Airport
Metric (Imperial)
Date Time (cdt) Wind (kph) Vis. (km) Weather Sky Cond. Temperature (ºC) Relative Humidity Wind Chill (°C) Heat Index (°C) Pressure Precipitation (cm)
Air Dwpt 6 hour altimeter (cm) sea level (mb) 1 hr 3 hr 6 hr
Max. Min.
05 01:52 S 7 16.09 Fair CLR 26.7 20 67% 28 76 1011.7
05 00:52 Calm 16.09 Fair CLR 26.7 20 34.4 25 67% 28 76 1011.7
04 23:52 Calm 16.09 Fair CLR 25 20 74% 26 75.97 1011.6
04 22:52 S 6 16.09 Fair CLR 26.1 20 69% 27 75.95 1011.3
04 21:52 Calm 16.09 Fair CLR 27.2 20.6 67% 29 75.92 1011.1
04 19:52 SE 6 16.09 Fair CLR 31.1 21.1 55% 34 75.87 1010.2
04 18:52 SE 11 16.09 Fair CLR 34.4 20.6 37.8 34.4 44% 37 75.84 1010.1
04 17:52 SE 13 16.09 Fair CLR 36.7 20 38% 40 75.87 1010.3
04 16:52 SE 17 16.09 Fair CLR 37.2 20.6 38% 41 75.87 1010.2
04 15:52 S 15 G 30 16.09 Fair CLR 37.2 20.6 38% 41 75.9 1010.5
04 14:52 S 15 16.09 Fair CLR 37.2 21.1 39% 41 75.92 1010.9
04 13:52 S 15 G 30 16.09 Fair CLR 35.6 21.1 43% 39 75.95 1011.2
04 12:52 SW 20 G 33 16.09 Fair CLR 35 22.2 35 21.7 47% 40 76 1011.7
04 10:52 SW 17 16.09 Fair CLR 32.2 22.2 56% 36 76 1012.0
04 09:52 SW 15 16.09 Fair CLR 29.4 21.7 63% 32 76.02 1012.2
04 08:52 S 9 16.09 Fair CLR 26.7 21.1 71% 28 76.02 1012.2
04 07:52 Calm 16.09 Fair CLR 24.4 20.6 79% 25 76 1012.0
04 06:52 S 6 16.09 Fair CLR 22.8 19.4 28.9 21.7 81% 75.95 1011.3
04 05:52 SW 6 16.09 Fair CLR 23.3 20 82% 75.92 1011.0
04 04:52 SW 9 16.09 Fair CLR 24.4 20 77% 25 75.92 1010.7
04 03:52 SW 13 16.09 Fair CLR 26.1 20 69% 27 75.9 1010.3
04 02:52 SW 17 16.09 Fair CLR 27.2 20.6 67% 29 75.9 1010.3
04 01:52 SW 17 16.09 Fair CLR 28.3 20.6 63% 30 75.87 1010.2
04 00:52 SW 19 G 33 16.09 Fair CLR 28.9 20 35 25.6 59% 31 75.87 1010.2
03 23:52 S 13 16.09 Fair CLR 29.4 20 57% 31 75.84 1009.9
03 22:52 S 9 16.09 Fair CLR 28.3 19.4 59% 30 75.84 1009.9
03 21:52 Calm 16.09 Fair CLR 25.6 20 71% 27 75.82 1009.5
03 20:52 Calm 16.09 Fair CLR 27.2 20 65% 29 75.74 1008.6
03 19:52 S 7 16.09 Fair CLR 31.7 20 50% 34 75.69 1007.9
03 18:52 S 13 16.09 Fair CLR 35 18.9 37.8 35 39% 37 75.69 1007.7
03 17:52 S 22 G 35 16.09 Fair CLR 37.2 17.8 32% 39 75.67 1007.4
03 16:52 S 22 16.09 Fair CLR 37.2 17.8 32% 39 75.67 1007.4
03 15:52 S 30 G 41 16.09 Fair CLR 37.2 19.4 35% 40 75.72 1007.9
03 14:52 S 22 G 39 16.09 Fair CLR 37.2 20 37% 40 75.74 1008.4
03 13:52 S 30 G 41 16.09 Fair CLR 36.1 20 39% 39 75.79 1009.0
03 12:52 S 26 G 44 16.09 Fair CLR 35 20 35.6 24.4 41% 38 75.84 1009.9
03 11:52 S 26 G 43 16.09 A Few Clouds FEW120 33.3 20 46% 36 75.9 1010.4
03 10:52 S 20 16.09 A Few Clouds FEW120 31.7 20.6 52% 34 75.92 1010.8
03 09:52 S 17 G 39 16.09 Partly Cloudy SCT120 30.6 20.6 55% 33 75.92 1011.0
03 08:52 S 22 G 37 16.09 A Few Clouds FEW110 28.9 20 59% 31 75.95 1011.3
03 07:52 SW 13 16.09 Mostly Cloudy BKN110 26.7 19.4 64% 28 75.92 1011.1
03 06:52 SW 11 16.09 Fair CLR 24.4 18.3 29.4 23.9 69% 25 75.92 1010.7
03 05:52 SW 13 16.09 Fair CLR 26.1 18.3 62% 27 75.9 1010.4
03 04:52 SW 17 16.09 Mostly Cloudy BKN110 27.2 17.8 57% 28 75.87 1010.1
03 03:52 SW 15 16.09 Fair CLR 27.8 17.8 55% 29 75.87 1010.1
03 02:52 SW 11 16.09 Partly Cloudy SCT120 27.2 17.8 57% 28 75.87 1010.1
03 01:52 S 13 16.09 Fair CLR 27.8 17.8 55% 29 75.9 1010.2
03 00:52 S 17 16.09 Fair CLR 29.4 17.2 35 26.7 48% 30 75.87 1010.0
02 23:52 S 19 16.09 Fair CLR 30 17.8 48% 31 75.87 1010.0
02 22:52 Vrbl 6 16.09 Fair CLR 27.2 18.3 58% 28 75.87 1010.3
02 21:52 S 7 16.09 Fair CLR 27.8 18.3 56% 29 75.87 1010.1
02 20:52 S 6 16.09 Fair CLR 28.9 17.8 51% 30 75.82 1009.6
02 19:52 S 6 16.09 Fair CLR 30.6 18.3 48% 32 75.79 1009.3
02 18:52 S 11 16.09 Fair CLR 35 17.8 38.9 35 36% 36 75.79 1009.1
02 17:52 S 19 16.09 Fair CLR 37.2 17.2 31% 38 75.79 1009.1
02 16:52 S 19 G 37 16.09 Fair CLR 38.3 16.7 28% 39 75.82 1009.5
02 15:52 S 22 16.09 Fair CLR 38.3 16.1 27% 39 75.87 1010.1
02 14:52 SW 17 G 41 16.09 Fair CLR 38.9 16.7 27% 40 75.92 1010.7
02 13:52 S 22 G 39 16.09 Fair CLR 37.8 17.8 31% 39 75.97 1011.3
02 12:52 S 26 G 46 16.09 Fair CLR 36.7 18.3 37.2 21.7 34% 38 76 1012.0
02 11:52 SW 28 G 43 16.09 Fair CLR 36.1 19.4 37% 38 76.05 1012.7
02 10:15 SW 19 16.09 Mostly Cloudy BKN012 32 28 79% 44 76.07 0.0
02 09:52 SW 20 16.09 Fair CLR 30.6 18.9 50% 32 76.07 1013.0
02 08:52 SW 19 16.09 Fair CLR 28.3 18.3 55% 29 76.07 1013.2
02 07:52 SW 13 16.09 Fair CLR 25 17.8 64% 26 76.07 1013.1
02 06:52 Calm 16.09 Fair CLR 22.2 17.8 25.6 21.1 76% 76.05 1012.8
02 05:52 Calm 16.09 Partly Cloudy SCT120 22.2 17.8 76% 76.05 1012.4
02 04:52 Calm 16.09 Mostly Cloudy BKN120 21.7 17.8 79% 76.02 1012.3
02 03:52 Calm 16.09 Fair CLR 22.8 17.8 74% 76.02 1012.1
02 02:52 SW 11 16.09 Fair CLR 24.4 17.2 64% 25 76 1011.9
Date Time (cdt) Wind (kph) Vis. (km) Weather Sky Cond. Air Dwpt Max. Min. Relative Humidity Wind Chill (°C) Heat Index (°C) altimeter (cm) sea level (mb) 1 hr 3 hr 6 hr
6 hour
Temperature (ºC) Pressure Precipitation (cm)